sensor_id;sensor_type;location;lat;lon;timestamp;pressure;altitude;pressure_sealevel;temperature;humidity
49393;BME280;35268;42.642;23.308;2023-05-02T00:00:50;94231.06;;;12.72;58.14
49393;BME280;35268;42.642;23.308;2023-05-02T00:03:15;94234.81;;;12.71;58.03
49393;BME280;35268;42.642;23.308;2023-05-02T00:05:41;94238.59;;;12.70;57.80
49393;BME280;35268;42.642;23.308;2023-05-02T00:08:07;94230.25;;;12.72;57.65
49393;BME280;35268;42.642;23.308;2023-05-02T00:10:33;94235.28;;;12.73;57.87
49393;BME280;35268;42.642;23.308;2023-05-02T00:12:58;94232.44;;;12.70;57.96
49393;BME280;35268;42.642;23.308;2023-05-02T00:15:24;94236.72;;;12.71;58.01
49393;BME280;35268;42.642;23.308;2023-05-02T00:17:51;94226.03;;;12.62;58.32
49393;BME280;35268;42.642;23.308;2023-05-02T00:20:17;94235.31;;;12.64;58.38
49393;BME280;35268;42.642;23.308;2023-05-02T00:22:42;94229.47;;;12.62;58.46
49393;BME280;35268;42.642;23.308;2023-05-02T00:25:08;94237.66;;;12.57;58.75
49393;BME280;35268;42.642;23.308;2023-05-02T00:27:33;94243.66;;;12.54;58.84
49393;BME280;35268;42.642;23.308;2023-05-02T00:29:59;94250.41;;;12.52;59.12
49393;BME280;35268;42.642;23.308;2023-05-02T00:32:25;94241.91;;;12.41;59.52
49393;BME280;35268;42.642;23.308;2023-05-02T00:34:51;94239.41;;;12.36;60.05
49393;BME280;35268;42.642;23.308;2023-05-02T00:37:16;94247.56;;;12.31;60.20
49393;BME280;35268;42.642;23.308;2023-05-02T00:39:42;94245.84;;;12.26;60.17
49393;BME280;35268;42.642;23.308;2023-05-02T00:42:07;94248.66;;;12.21;60.46
49393;BME280;35268;42.642;23.308;2023-05-02T00:44:33;94253.22;;;12.20;60.71
49393;BME280;35268;42.642;23.308;2023-05-02T00:47:00;94254.63;;;12.18;60.86
49393;BME280;35268;42.642;23.308;2023-05-02T00:49:26;94259.03;;;12.14;61.02
49393;BME280;35268;42.642;23.308;2023-05-02T00:51:52;94256.66;;;12.12;60.93
49393;BME280;35268;42.642;23.308;2023-05-02T00:54:18;94250.38;;;12.08;61.12
49393;BME280;35268;42.642;23.308;2023-05-02T00:56:44;94247.41;;;12.10;61.15
49393;BME280;35268;42.642;23.308;2023-05-02T00:59:10;94240.94;;;12.11;60.81
49393;BME280;35268;42.642;23.308;2023-05-02T01:07:54;94246.75;;;12.13;60.90
49393;BME280;35268;42.642;23.308;2023-05-02T01:13:08;94239.56;;;12.13;61.41
49393;BME280;35268;42.642;23.308;2023-05-02T01:15:37;94233.09;;;12.14;61.45
49393;BME280;35268;42.642;23.308;2023-05-02T01:18:04;94240.50;;;12.17;61.56
49393;BME280;35268;42.642;23.308;2023-05-02T01:20:32;94234.03;;;12.18;61.75
49393;BME280;35268;42.642;23.308;2023-05-02T01:29:06;94226.81;;;12.10;62.12
49393;BME280;35268;42.642;23.308;2023-05-02T01:31:37;94224.44;;;12.09;62.06
49393;BME280;35268;42.642;23.308;2023-05-02T01:34:06;94229.31;;;12.07;62.49
49393;BME280;35268;42.642;23.308;2023-05-02T01:36:34;94222.72;;;12.04;62.64
49393;BME280;35268;42.642;23.308;2023-05-02T01:39:01;94238.56;;;12.00;62.81
49393;BME280;35268;42.642;23.308;2023-05-02T01:41:30;94245.97;;;11.95;63.14
49393;BME280;35268;42.642;23.308;2023-05-02T01:44:04;94240.25;;;11.88;63.38
49393;BME280;35268;42.642;23.308;2023-05-02T01:46:39;94240.91;;;11.84;63.27
49393;BME280;35268;42.642;23.308;2023-05-02T01:49:07;94241.50;;;11.81;63.86
49393;BME280;35268;42.642;23.308;2023-05-02T01:51:36;94232.72;;;11.81;63.75
49393;BME280;35268;42.642;23.308;2023-05-02T01:54:04;94235.22;;;11.77;64.03
49393;BME280;35268;42.642;23.308;2023-05-02T01:56:35;94235.03;;;11.74;64.03
49393;BME280;35268;42.642;23.308;2023-05-02T01:59:04;94224.19;;;11.70;64.28
49393;BME280;35268;42.642;23.308;2023-05-02T02:01:31;94217.59;;;11.68;64.72
49393;BME280;35268;42.642;23.308;2023-05-02T02:03:59;94224.00;;;11.58;64.82
49393;BME280;35268;42.642;23.308;2023-05-02T02:06:25;94229.66;;;11.56;65.19
49393;BME280;35268;42.642;23.308;2023-05-02T02:08:52;94232.16;;;11.53;65.20
49393;BME280;35268;42.642;23.308;2023-05-02T02:11:28;94218.66;;;11.49;65.11
49393;BME280;35268;42.642;23.308;2023-05-02T02:14:13;94227.28;;;11.46;65.30
49393;BME280;35268;42.642;23.308;2023-05-02T02:16:41;94224.63;;;11.46;65.60
49393;BME280;35268;42.642;23.308;2023-05-02T02:19:09;94231.00;;;11.36;65.89
49393;BME280;35268;42.642;23.308;2023-05-02T02:21:35;94232.41;;;11.34;66.07
49393;BME280;35268;42.642;23.308;2023-05-02T02:24:04;94226.91;;;11.30;66.33
49393;BME280;35268;42.642;23.308;2023-05-02T02:26:31;94223.75;;;11.28;66.17
49393;BME280;35268;42.642;23.308;2023-05-02T02:28:56;94219.84;;;11.26;66.34
49393;BME280;35268;42.642;23.308;2023-05-02T02:31:22;94218.53;;;11.23;66.33
49393;BME280;35268;42.642;23.308;2023-05-02T02:33:49;94229.84;;;11.20;66.38
49393;BME280;35268;42.642;23.308;2023-05-02T02:44:55;94221.47;;;11.13;66.73
49393;BME280;35268;42.642;23.308;2023-05-02T02:47:31;94227.44;;;11.10;66.65
49393;BME280;35268;42.642;23.308;2023-05-02T02:50:20;94229.28;;;11.00;67.21
49393;BME280;35268;42.642;23.308;2023-05-02T02:53:01;94232.25;;;10.99;67.22
49393;BME280;35268;42.642;23.308;2023-05-02T02:55:52;94231.81;;;11.06;67.28
49393;BME280;35268;42.642;23.308;2023-05-02T02:58:51;94250.50;;;11.06;67.19
49393;BME280;35268;42.642;23.308;2023-05-02T03:01:21;94261.75;;;11.02;67.31
49393;BME280;35268;42.642;23.308;2023-05-02T03:03:49;94259.72;;;10.99;67.35
49393;BME280;35268;42.642;23.308;2023-05-02T03:06:16;94258.13;;;10.98;67.53
49393;BME280;35268;42.642;23.308;2023-05-02T03:08:43;94261.22;;;10.92;67.75
49393;BME280;35268;42.642;23.308;2023-05-02T03:11:09;94264.97;;;10.91;67.70
49393;BME280;35268;42.642;23.308;2023-05-02T03:13:35;94272.00;;;10.87;68.16
49393;BME280;35268;42.642;23.308;2023-05-02T03:18:45;94277.34;;;10.87;68.02
49393;BME280;35268;42.642;23.308;2023-05-02T03:21:10;94287.53;;;10.84;67.99
49393;BME280;35268;42.642;23.308;2023-05-02T03:23:36;94285.34;;;10.87;68.17
49393;BME280;35268;42.642;23.308;2023-05-02T03:26:01;94284.28;;;10.88;68.00
49393;BME280;35268;42.642;23.308;2023-05-02T03:28:27;94284.09;;;10.84;68.00
49393;BME280;35268;42.642;23.308;2023-05-02T03:30:52;94286.88;;;10.79;68.31
49393;BME280;35268;42.642;23.308;2023-05-02T03:33:18;94282.16;;;10.76;68.55
49393;BME280;35268;42.642;23.308;2023-05-02T03:35:44;94283.25;;;10.75;68.39
49393;BME280;35268;42.642;23.308;2023-05-02T03:38:10;94281.78;;;10.69;68.60
49393;BME280;35268;42.642;23.308;2023-05-02T03:40:35;94280.09;;;10.73;68.48
49393;BME280;35268;42.642;23.308;2023-05-02T03:43:01;94280.25;;;10.76;68.62
49393;BME280;35268;42.642;23.308;2023-05-02T03:45:26;94283.91;;;10.80;68.41
49393;BME280;35268;42.642;23.308;2023-05-02T03:47:52;94280.94;;;10.82;68.28
49393;BME280;35268;42.642;23.308;2023-05-02T03:50:17;94283.00;;;10.85;68.21
49393;BME280;35268;42.642;23.308;2023-05-02T03:52:43;94278.94;;;10.88;68.26
49393;BME280;35268;42.642;23.308;2023-05-02T03:55:08;94277.25;;;10.92;68.15
49393;BME280;35268;42.642;23.308;2023-05-02T03:57:34;94273.16;;;10.94;67.87
49393;BME280;35268;42.642;23.308;2023-05-02T04:00:00;94289.34;;;10.98;67.77
49393;BME280;35268;42.642;23.308;2023-05-02T04:02:25;94274.31;;;11.02;67.75
49393;BME280;35268;42.642;23.308;2023-05-02T04:04:51;94282.03;;;11.03;67.70
49393;BME280;35268;42.642;23.308;2023-05-02T04:07:16;94284.53;;;11.09;67.43
49393;BME280;35268;42.642;23.308;2023-05-02T04:09:44;94281.28;;;11.12;67.12
49393;BME280;35268;42.642;23.308;2023-05-02T04:12:09;94286.00;;;11.15;66.96
49393;BME280;35268;42.642;23.308;2023-05-02T04:14:35;94291.22;;;11.20;66.97
49393;BME280;35268;42.642;23.308;2023-05-02T04:17:00;94275.06;;;11.25;66.56
49393;BME280;35268;42.642;23.308;2023-05-02T04:19:26;94270.19;;;11.27;66.55
49393;BME280;35268;42.642;23.308;2023-05-02T04:21:51;94272.56;;;11.29;66.53
49393;BME280;35268;42.642;23.308;2023-05-02T04:24:17;94279.16;;;11.31;66.56
49393;BME280;35268;42.642;23.308;2023-05-02T04:26:43;94279.81;;;11.37;66.21
49393;BME280;35268;42.642;23.308;2023-05-02T04:29:09;94283.75;;;11.39;66.10
49393;BME280;35268;42.642;23.308;2023-05-02T04:31:34;94283.16;;;11.42;65.69
49393;BME280;35268;42.642;23.308;2023-05-02T04:34:00;94279.38;;;11.43;65.91
49393;BME280;35268;42.642;23.308;2023-05-02T04:36:26;94275.00;;;11.48;65.77
49393;BME280;35268;42.642;23.308;2023-05-02T04:38:52;94278.19;;;11.58;65.68
49393;BME280;35268;42.642;23.308;2023-05-02T04:41:18;94277.28;;;11.63;65.39
49393;BME280;35268;42.642;23.308;2023-05-02T04:43:43;94281.50;;;11.64;65.34
49393;BME280;35268;42.642;23.308;2023-05-02T04:46:09;94281.97;;;11.66;65.33
49393;BME280;35268;42.642;23.308;2023-05-02T04:48:34;94286.56;;;11.74;65.06
49393;BME280;35268;42.642;23.308;2023-05-02T04:51:00;94289.41;;;11.78;65.00
49393;BME280;35268;42.642;23.308;2023-05-02T04:53:25;94286.59;;;11.83;64.70
49393;BME280;35268;42.642;23.308;2023-05-02T04:55:51;94292.00;;;11.92;64.01
49393;BME280;35268;42.642;23.308;2023-05-02T04:58:16;94296.25;;;11.93;64.13
49393;BME280;35268;42.642;23.308;2023-05-02T05:00:42;94288.84;;;11.98;63.95
49393;BME280;35268;42.642;23.308;2023-05-02T05:03:07;94295.97;;;12.03;63.64
49393;BME280;35268;42.642;23.308;2023-05-02T05:05:33;94293.75;;;12.05;63.12
49393;BME280;35268;42.642;23.308;2023-05-02T05:07:58;94282.28;;;12.04;62.85
49393;BME280;35268;42.642;23.308;2023-05-02T05:10:24;94276.94;;;12.04;62.53
49393;BME280;35268;42.642;23.308;2023-05-02T05:12:50;94280.88;;;12.07;62.32
49393;BME280;35268;42.642;23.308;2023-05-02T05:15:15;94293.44;;;12.07;62.51
49393;BME280;35268;42.642;23.308;2023-05-02T05:17:41;94289.97;;;12.06;62.30
49393;BME280;35268;42.642;23.308;2023-05-02T05:20:07;94286.06;;;12.12;62.33
49393;BME280;35268;42.642;23.308;2023-05-02T05:22:38;94298.00;;;12.15;62.11
49393;BME280;35268;42.642;23.308;2023-05-02T05:25:04;94293.31;;;12.20;62.31
49393;BME280;35268;42.642;23.308;2023-05-02T05:27:30;94299.28;;;12.26;61.90
49393;BME280;35268;42.642;23.308;2023-05-02T05:29:55;94298.22;;;12.36;62.01
49393;BME280;35268;42.642;23.308;2023-05-02T05:32:21;94294.13;;;12.47;61.63
49393;BME280;35268;42.642;23.308;2023-05-02T05:34:51;94302.59;;;12.49;61.29
49393;BME280;35268;42.642;23.308;2023-05-02T05:37:17;94308.28;;;12.56;61.41
49393;BME280;35268;42.642;23.308;2023-05-02T05:39:43;94304.84;;;12.64;60.52
49393;BME280;35268;42.642;23.308;2023-05-02T05:42:08;94310.94;;;12.74;60.62
49393;BME280;35268;42.642;23.308;2023-05-02T05:44:34;94305.75;;;12.77;60.35
49393;BME280;35268;42.642;23.308;2023-05-02T05:47:09;94306.72;;;12.81;60.19
49393;BME280;35268;42.642;23.308;2023-05-02T05:49:35;94304.50;;;12.92;60.33
49393;BME280;35268;42.642;23.308;2023-05-02T05:52:10;94310.78;;;12.96;60.14
49393;BME280;35268;42.642;23.308;2023-05-02T05:54:36;94306.69;;;13.08;59.75
49393;BME280;35268;42.642;23.308;2023-05-02T05:57:04;94311.06;;;13.12;59.29
49393;BME280;35268;42.642;23.308;2023-05-02T05:59:29;94308.56;;;13.16;59.22
49393;BME280;35268;42.642;23.308;2023-05-02T06:01:55;94305.22;;;13.28;61.01
49393;BME280;35268;42.642;23.308;2023-05-02T06:04:23;94322.06;;;13.46;61.74
49393;BME280;35268;42.642;23.308;2023-05-02T06:06:55;94321.25;;;13.54;60.74
49393;BME280;35268;42.642;23.308;2023-05-02T06:09:23;94329.56;;;13.61;59.36
49393;BME280;35268;42.642;23.308;2023-05-02T06:11:51;94322.78;;;13.72;59.69
49393;BME280;35268;42.642;23.308;2023-05-02T06:14:17;94312.31;;;13.79;58.49
49393;BME280;35268;42.642;23.308;2023-05-02T06:16:42;94319.22;;;13.89;57.76
49393;BME280;35268;42.642;23.308;2023-05-02T06:19:08;94319.06;;;13.94;56.79
49393;BME280;35268;42.642;23.308;2023-05-02T06:21:35;94305.91;;;14.01;57.01
49393;BME280;35268;42.642;23.308;2023-05-02T06:24:01;94316.41;;;14.15;56.23
49393;BME280;35268;42.642;23.308;2023-05-02T06:27:18;94317.97;;;14.16;54.70
49393;BME280;35268;42.642;23.308;2023-05-02T06:29:22;94318.78;;;14.17;54.63
49393;BME280;35268;42.642;23.308;2023-05-02T06:31:47;94312.91;;;14.23;56.79
49393;BME280;35268;42.642;23.308;2023-05-02T06:34:15;94314.53;;;14.37;57.43
49393;BME280;35268;42.642;23.308;2023-05-02T06:36:40;94311.63;;;14.51;55.98
49393;BME280;35268;42.642;23.308;2023-05-02T06:39:06;94318.97;;;14.62;55.17
49393;BME280;35268;42.642;23.308;2023-05-02T06:41:31;94317.03;;;14.72;53.65
49393;BME280;35268;42.642;23.308;2023-05-02T06:43:59;94312.59;;;14.76;53.08
49393;BME280;35268;42.642;23.308;2023-05-02T06:46:28;94318.66;;;14.85;54.50
49393;BME280;35268;42.642;23.308;2023-05-02T06:48:55;94316.78;;;14.98;52.72
49393;BME280;35268;42.642;23.308;2023-05-02T06:51:20;94307.56;;;15.08;51.75
49393;BME280;35268;42.642;23.308;2023-05-02T06:53:46;94301.44;;;15.19;52.00
49393;BME280;35268;42.642;23.308;2023-05-02T06:56:12;94307.84;;;15.27;52.74
49393;BME280;35268;42.642;23.308;2023-05-02T06:58:37;94308.09;;;15.34;51.75
49393;BME280;35268;42.642;23.308;2023-05-02T07:01:03;94311.34;;;15.40;49.95
49393;BME280;35268;42.642;23.308;2023-05-02T07:03:28;94305.66;;;15.41;50.10
49393;BME280;35268;42.642;23.308;2023-05-02T07:05:56;94306.69;;;15.49;49.65
49393;BME280;35268;42.642;23.308;2023-05-02T07:08:22;94320.03;;;15.58;48.97
49393;BME280;35268;42.642;23.308;2023-05-02T07:10:49;94312.53;;;15.63;49.44
49393;BME280;35268;42.642;23.308;2023-05-02T07:13:14;94316.56;;;15.70;50.29
49393;BME280;35268;42.642;23.308;2023-05-02T07:15:40;94319.19;;;15.78;48.43
49393;BME280;35268;42.642;23.308;2023-05-02T07:18:05;94327.03;;;15.83;46.77
49393;BME280;35268;42.642;23.308;2023-05-02T07:20:31;94316.50;;;15.91;47.81
49393;BME280;35268;42.642;23.308;2023-05-02T07:22:56;94315.94;;;15.97;46.86
49393;BME280;35268;42.642;23.308;2023-05-02T07:25:22;94312.34;;;16.05;47.17
49393;BME280;35268;42.642;23.308;2023-05-02T07:27:47;94326.38;;;16.11;47.78
49393;BME280;35268;42.642;23.308;2023-05-02T07:30:13;94319.06;;;16.12;46.54
49393;BME280;35268;42.642;23.308;2023-05-02T07:32:38;94311.13;;;16.15;46.68
49393;BME280;35268;42.642;23.308;2023-05-02T07:35:04;94320.19;;;16.23;46.42
49393;BME280;35268;42.642;23.308;2023-05-02T07:37:33;94323.09;;;16.30;45.97
49393;BME280;35268;42.642;23.308;2023-05-02T07:39:59;94327.03;;;16.33;45.42
49393;BME280;35268;42.642;23.308;2023-05-02T07:42:29;94325.69;;;16.39;45.87
49393;BME280;35268;42.642;23.308;2023-05-02T07:44:55;94327.47;;;16.47;44.41
49393;BME280;35268;42.642;23.308;2023-05-02T07:47:20;94326.34;;;16.48;44.67
49393;BME280;35268;42.642;23.308;2023-05-02T07:49:50;94332.72;;;16.56;44.39
49393;BME280;35268;42.642;23.308;2023-05-02T07:52:15;94330.91;;;16.60;44.75
49393;BME280;35268;42.642;23.308;2023-05-02T07:55:17;94336.53;;;16.67;44.31
49393;BME280;35268;42.642;23.308;2023-05-02T07:57:36;94326.97;;;16.70;44.07
49393;BME280;35268;42.642;23.308;2023-05-02T08:00:05;94327.75;;;16.70;43.10
49393;BME280;35268;42.642;23.308;2023-05-02T08:02:34;94327.97;;;16.77;45.01
49393;BME280;35268;42.642;23.308;2023-05-02T08:05:01;94336.38;;;16.88;44.40
49393;BME280;35268;42.642;23.308;2023-05-02T08:07:27;94339.72;;;16.97;44.26
49393;BME280;35268;42.642;23.308;2023-05-02T08:09:52;94337.00;;;16.97;43.63
49393;BME280;35268;42.642;23.308;2023-05-02T08:12:17;94333.44;;;16.93;44.04
49393;BME280;35268;42.642;23.308;2023-05-02T08:14:43;94334.75;;;16.99;43.80
49393;BME280;35268;42.642;23.308;2023-05-02T08:17:09;94336.19;;;17.09;43.51
49393;BME280;35268;42.642;23.308;2023-05-02T08:19:34;94330.91;;;17.13;42.19
49393;BME280;35268;42.642;23.308;2023-05-02T08:22:00;94337.19;;;17.17;42.86
49393;BME280;35268;42.642;23.308;2023-05-02T08:24:25;94333.44;;;17.21;42.30
49393;BME280;35268;42.642;23.308;2023-05-02T08:26:51;94334.00;;;17.27;41.95
49393;BME280;35268;42.642;23.308;2023-05-02T08:29:16;94333.41;;;17.34;42.18
49393;BME280;35268;42.642;23.308;2023-05-02T08:31:41;94326.28;;;17.41;43.08
49393;BME280;35268;42.642;23.308;2023-05-02T08:34:07;94324.91;;;17.48;42.04
49393;BME280;35268;42.642;23.308;2023-05-02T08:36:33;94327.28;;;17.49;41.61
49393;BME280;35268;42.642;23.308;2023-05-02T08:38:58;94335.28;;;17.61;42.43
49393;BME280;35268;42.642;23.308;2023-05-02T08:41:24;94335.47;;;17.69;41.33
49393;BME280;35268;42.642;23.308;2023-05-02T08:43:49;94332.63;;;17.77;41.08
49393;BME280;35268;42.642;23.308;2023-05-02T08:46:16;94334.56;;;17.93;41.83
49393;BME280;35268;42.642;23.308;2023-05-02T08:48:42;94338.66;;;18.02;41.10
49393;BME280;35268;42.642;23.308;2023-05-02T08:51:13;94333.50;;;18.13;40.00
49393;BME280;35268;42.642;23.308;2023-05-02T08:53:39;94321.50;;;18.27;39.95
49393;BME280;35268;42.642;23.308;2023-05-02T08:56:06;94319.97;;;18.45;39.72
49393;BME280;35268;42.642;23.308;2023-05-02T08:58:32;94328.56;;;18.67;40.22
49393;BME280;35268;42.642;23.308;2023-05-02T09:01:02;94325.22;;;18.89;38.73
49393;BME280;35268;42.642;23.308;2023-05-02T09:03:30;94330.47;;;19.01;39.13
49393;BME280;35268;42.642;23.308;2023-05-02T09:06:05;94325.84;;;19.21;38.65
49393;BME280;35268;42.642;23.308;2023-05-02T09:08:31;94325.06;;;19.40;37.88
49393;BME280;35268;42.642;23.308;2023-05-02T09:10:57;94314.56;;;19.58;37.75
49393;BME280;35268;42.642;23.308;2023-05-02T09:16:00;94310.88;;;19.90;36.67
49393;BME280;35268;42.642;23.308;2023-05-02T09:18:31;94310.34;;;20.03;36.45
49393;BME280;35268;42.642;23.308;2023-05-02T09:20:58;94309.72;;;20.14;36.32
49393;BME280;35268;42.642;23.308;2023-05-02T09:23:47;94300.78;;;20.36;36.28
49393;BME280;35268;42.642;23.308;2023-05-02T09:26:15;94301.81;;;20.55;33.78
49393;BME280;35268;42.642;23.308;2023-05-02T09:28:43;94310.94;;;20.43;34.57
49393;BME280;35268;42.642;23.308;2023-05-02T09:31:10;94308.00;;;20.55;34.03
49393;BME280;35268;42.642;23.308;2023-05-02T09:33:37;94297.88;;;20.75;33.42
49393;BME280;35268;42.642;23.308;2023-05-02T09:36:03;94293.69;;;20.81;33.63
49393;BME280;35268;42.642;23.308;2023-05-02T09:38:29;94298.97;;;21.01;34.53
49393;BME280;35268;42.642;23.308;2023-05-02T09:40:55;94296.50;;;21.19;33.42
49393;BME280;35268;42.642;23.308;2023-05-02T09:43:21;94291.06;;;21.19;32.99
49393;BME280;35268;42.642;23.308;2023-05-02T09:46:03;94292.34;;;21.32;32.65
49393;BME280;35268;42.642;23.308;2023-05-02T09:48:30;94289.06;;;21.46;32.79
49393;BME280;35268;42.642;23.308;2023-05-02T09:50:56;94284.81;;;21.49;31.44
49393;BME280;35268;42.642;23.308;2023-05-02T09:53:23;94282.69;;;21.31;32.78
49393;BME280;35268;42.642;23.308;2023-05-02T09:56:02;94285.16;;;21.43;33.57
49393;BME280;35268;42.642;23.308;2023-05-02T09:58:27;94287.25;;;21.61;33.41
49393;BME280;35268;42.642;23.308;2023-05-02T10:00:55;94287.38;;;21.75;31.22
49393;BME280;35268;42.642;23.308;2023-05-02T10:03:22;94273.41;;;21.73;31.29
49393;BME280;35268;42.642;23.308;2023-05-02T10:05:48;94274.66;;;21.83;31.43
49393;BME280;35268;42.642;23.308;2023-05-02T10:08:17;94277.13;;;21.99;32.05
49393;BME280;35268;42.642;23.308;2023-05-02T10:10:55;94272.56;;;22.07;31.69
49393;BME280;35268;42.642;23.308;2023-05-02T10:13:22;94273.03;;;22.19;29.83
49393;BME280;35268;42.642;23.308;2023-05-02T10:15:58;94265.34;;;22.25;29.87
49393;BME280;35268;42.642;23.308;2023-05-02T10:21:10;94267.38;;;22.39;29.28
49393;BME280;35268;42.642;23.308;2023-05-02T10:23:39;94255.78;;;22.46;29.47
49393;BME280;35268;42.642;23.308;2023-05-02T10:26:05;94254.66;;;22.54;28.36
49393;BME280;35268;42.642;23.308;2023-05-02T10:28:31;94258.19;;;22.65;28.47
49393;BME280;35268;42.642;23.308;2023-05-02T10:30:59;94256.34;;;22.80;28.05
49393;BME280;35268;42.642;23.308;2023-05-02T10:33:27;94253.59;;;22.73;27.60
49393;BME280;35268;42.642;23.308;2023-05-02T10:35:55;94246.50;;;22.54;27.89
49393;BME280;35268;42.642;23.308;2023-05-02T10:38:21;94244.59;;;22.58;27.66
49393;BME280;35268;42.642;23.308;2023-05-02T10:40:59;94241.53;;;22.67;27.61
49393;BME280;35268;42.642;23.308;2023-05-02T10:43:30;94245.09;;;22.78;27.29
49393;BME280;35268;42.642;23.308;2023-05-02T10:45:56;94244.28;;;22.77;27.38
49393;BME280;35268;42.642;23.308;2023-05-02T10:48:25;94245.06;;;22.74;28.25
49393;BME280;35268;42.642;23.308;2023-05-02T10:50:56;94247.78;;;22.74;27.65
49393;BME280;35268;42.642;23.308;2023-05-02T10:53:35;94241.19;;;22.79;28.05
49393;BME280;35268;42.642;23.308;2023-05-02T10:56:19;94240.47;;;22.89;27.26
49393;BME280;35268;42.642;23.308;2023-05-02T10:58:50;94245.88;;;22.82;26.97
49393;BME280;35268;42.642;23.308;2023-05-02T11:03:57;94232.63;;;22.77;27.02
49393;BME280;35268;42.642;23.308;2023-05-02T11:06:25;94237.31;;;22.80;26.24
49393;BME280;35268;42.642;23.308;2023-05-02T11:08:50;94238.06;;;22.77;26.84
49393;BME280;35268;42.642;23.308;2023-05-02T11:14:03;94234.13;;;22.60;26.00
49393;BME280;35268;42.642;23.308;2023-05-02T11:19:26;94234.97;;;22.78;27.10
49393;BME280;35268;42.642;23.308;2023-05-02T11:21:52;94230.75;;;22.92;26.56
49393;BME280;35268;42.642;23.308;2023-05-02T11:24:45;94222.28;;;23.08;26.47
49393;BME280;35268;42.642;23.308;2023-05-02T11:30:08;94223.50;;;23.10;27.04
49393;BME280;35268;42.642;23.308;2023-05-02T11:35:24;94207.22;;;23.42;26.00
49393;BME280;35268;42.642;23.308;2023-05-02T11:38:01;94211.91;;;23.56;26.35
49393;BME280;35268;42.642;23.308;2023-05-02T11:40:28;94217.38;;;23.74;25.59
49393;BME280;35268;42.642;23.308;2023-05-02T11:42:54;94207.31;;;23.86;26.51
49393;BME280;35268;42.642;23.308;2023-05-02T11:45:21;94201.84;;;24.00;26.61
49393;BME280;35268;42.642;23.308;2023-05-02T11:47:49;94203.38;;;24.15;25.61
49393;BME280;35268;42.642;23.308;2023-05-02T11:50:15;94201.81;;;24.11;25.39
49393;BME280;35268;42.642;23.308;2023-05-02T11:52:43;94206.09;;;24.19;25.34
49393;BME280;35268;42.642;23.308;2023-05-02T11:55:12;94199.03;;;24.36;25.21
49393;BME280;35268;42.642;23.308;2023-05-02T11:57:38;94197.09;;;24.40;25.50
49393;BME280;35268;42.642;23.308;2023-05-02T12:00:04;94194.75;;;24.42;24.99
49393;BME280;35268;42.642;23.308;2023-05-02T12:02:37;94186.22;;;24.51;24.93
49393;BME280;35268;42.642;23.308;2023-05-02T12:05:03;94191.25;;;24.56;24.49
49393;BME280;35268;42.642;23.308;2023-05-02T12:07:42;94185.78;;;24.56;25.27
49393;BME280;35268;42.642;23.308;2023-05-02T12:10:09;94179.16;;;24.60;25.94
49393;BME280;35268;42.642;23.308;2023-05-02T12:12:36;94173.25;;;24.73;25.13
49393;BME280;35268;42.642;23.308;2023-05-02T12:15:10;94172.47;;;24.79;24.67
49393;BME280;35268;42.642;23.308;2023-05-02T12:17:42;94161.97;;;24.78;24.94
49393;BME280;35268;42.642;23.308;2023-05-02T12:20:09;94164.69;;;24.78;24.66
49393;BME280;35268;42.642;23.308;2023-05-02T12:22:35;94161.94;;;24.81;24.84
49393;BME280;35268;42.642;23.308;2023-05-02T12:25:03;94168.13;;;24.89;24.36
49393;BME280;35268;42.642;23.308;2023-05-02T12:27:29;94161.97;;;24.78;24.51
49393;BME280;35268;42.642;23.308;2023-05-02T12:29:57;94162.78;;;24.71;24.63
49393;BME280;35268;42.642;23.308;2023-05-02T12:32:31;94158.09;;;24.72;24.55
49393;BME280;35268;42.642;23.308;2023-05-02T12:34:57;94157.72;;;24.70;24.80
49393;BME280;35268;42.642;23.308;2023-05-02T12:37:24;94148.72;;;24.73;24.66
49393;BME280;35268;42.642;23.308;2023-05-02T12:39:49;94138.19;;;24.82;23.99
49393;BME280;35268;42.642;23.308;2023-05-02T12:42:16;94139.72;;;24.83;24.57
49393;BME280;35268;42.642;23.308;2023-05-02T12:44:43;94141.66;;;24.86;24.23
49393;BME280;35268;42.642;23.308;2023-05-02T12:47:11;94136.16;;;24.93;23.94
49393;BME280;35268;42.642;23.308;2023-05-02T12:49:56;94136.09;;;25.67;24.18
49393;BME280;35268;42.642;23.308;2023-05-02T12:52:51;94136.09;;;27.12;21.81
49393;BME280;35268;42.642;23.308;2023-05-02T12:55:24;94130.00;;;28.46;20.73
49393;BME280;35268;42.642;23.308;2023-05-02T12:58:06;94131.41;;;29.63;19.38
49393;BME280;35268;42.642;23.308;2023-05-02T13:00:34;94130.81;;;30.63;17.99
49393;BME280;35268;42.642;23.308;2023-05-02T13:03:00;94131.53;;;31.48;16.89
49393;BME280;35268;42.642;23.308;2023-05-02T13:05:25;94122.53;;;32.08;16.96
49393;BME280;35268;42.642;23.308;2023-05-02T13:07:51;94116.81;;;32.37;16.42
49393;BME280;35268;42.642;23.308;2023-05-02T13:10:26;94122.69;;;32.48;16.60
49393;BME280;35268;42.642;23.308;2023-05-02T13:12:52;94125.56;;;32.57;16.59
49393;BME280;35268;42.642;23.308;2023-05-02T13:15:21;94129.66;;;32.75;16.14
49393;BME280;35268;42.642;23.308;2023-05-02T13:17:49;94126.94;;;33.06;15.59
49393;BME280;35268;42.642;23.308;2023-05-02T13:20:15;94128.44;;;33.29;15.69
49393;BME280;35268;42.642;23.308;2023-05-02T13:22:41;94126.03;;;33.41;14.91
49393;BME280;35268;42.642;23.308;2023-05-02T13:25:07;94134.47;;;33.77;14.54
49393;BME280;35268;42.642;23.308;2023-05-02T13:27:33;94135.78;;;34.23;14.15
49393;BME280;35268;42.642;23.308;2023-05-02T13:30:01;94126.72;;;34.50;13.76
49393;BME280;35268;42.642;23.308;2023-05-02T13:32:27;94130.25;;;34.23;13.59
49393;BME280;35268;42.642;23.308;2023-05-02T13:34:53;94123.66;;;34.39;13.79
49393;BME280;35268;42.642;23.308;2023-05-02T13:37:18;94126.28;;;34.79;13.27
49393;BME280;35268;42.642;23.308;2023-05-02T13:39:44;94122.84;;;34.93;12.80